Relevés horaires Semmerzake (Belgique)


Relevés horaires à Semmerzake - Dimanche 13 Juin 2021
Heure UTC1 Température [°C] Vent [km/h] Hum. [%] Pres.4 [hPa] Visi. [Km] Nébu. [octa] Préc.5 [mm] Cond.
2m. Res. Ros. Dir.2 Vit. Moy. Raf.3
23:00 17.2 17.2 11.3 NNO 1.9 -- 3.7 68 1024(-0.7/3h) 20 -- -- --
22:00 17.6 17.6 11.4 NNO 1.9 -- 3.7 67 1024.4(-0.5/3h) 20 -- -- --
21:00 18.5 18.5 11.6 NNO 1.9 -- 5.6 64 1024.4(-0.8/3h) 20 -- -- --
20:00 20.2 20.2 10.0 NNO 1.9 -- 1.9 52 1024.7(-0.8/3h) 20 -- -- --
19:00 22.3 22.3 9.6 NNO 1.9 -- 5.6 44 1024.9(-1.0/3h) 20 -- -- --
18:00 23.0 23.0 9.9 NNO 1.9 -- 9.3 43 1025.2(-1.0/3h) 20 -- -- --
17:00 23.4 23.4 9.8 NNO 1.9 -- 9.3 42 1025.5(-1.3/3h) 20 -- -- --
16:00 23.8 23.8 9.7 NNO 1.9 -- 7.4 41 1025.9(-1.5/3h) 20 -- -- --
15:00 23.6 23.6 9.8 E 3.7 -- 9.3 42 1026.2(-1.7/3h) 20 -- -- --
14:00 23.2 23.2 10.3 NE 3.7 -- 9.3 44 1026.9(-1.5/3h) 15 -- -- --
13:00 21.9 21.9 9.9 N 3.7 -- 9.3 46 1027.5(-1.2/3h) 15 -- -- --
12:00 21.0 21.0 9.2 NNO 3.7 -- 9.3 47 1028(-0.9/3h) 15 -- -- --
11:00 21.1 21.1 9.9 NE 3.7 -- 7.4 49 1028.5(-0.3/3h) 17 -- -- --
10:00 19.8 19.8 9.3 NNO 1.9 -- 5.6 51 1028.7(0.1/3h) 20 -- -- --
09:00 18.9 18.9 8.8 NNO 1.9 -- 5.6 52 1029(0.8/3h) 9 -- -- --
08:00 18.0 18.0 9.3 NNO 1.9 -- 3.7 57 1028.9(1.1/3h) 20 -- -- --
07:00 16.4 16.4 9.2 NNO 1.9 -- 3.7 62 1028.7(1.4/3h) 17 -- -- --
06:00 14.5 14.5 9.9 NNO 1.9 -- 3.7 74 1028.2(1.3/3h) 15 -- -- --
05:00 11.8 11.8 10.0 NNO 1.9 -- 3.7 89 1027.7(0.8/3h) 14 -- -- --
04:00 9.8 9.8 8.0 NNO 1.9 -- 1.9 89 1027.2(0.1/3h) 15 -- -- --
03:00 10.1 10.1 8.1 NNO 1.9 -- 1.9 87 1027(-0.3/3h) 16 -- -- --
02:00 10.6 10.6 7.7 NNO 1.9 -- 1.9 82 1027(-0.2/3h) 19 -- -- --
01:00 11.3 11.3 8.5 NNO 1.9 -- 1.9 83 1027.2(0.2/3h) 18 -- -- --
00:00 12.2 12.2 9.0 NNO 1.9 -- 11.1 81 1027.2(0.6/3h) 17 -- -- --

1 Coordinated Universal Time. Actuellement il est 16:00 locale et 14:00 UTC.

2 Le vent souffle depuis la direction indiquée vers la direction oposée.

3 Les rafales max. sont disponible 40 min après l'heure du relevé.

4 Pour les stations d'altitude (plus de 600m) le géopotentiel du niveau le plus proche de la pression obligatoire est indiqué.

5 Les stations disposant d'un diffuseur peuvent indiquer "trace". Cela signifie que des précipitations ont touchés le sol mais que la quantité est inférieure à 0.1 mm.

Récapitulatif de la journée
Température [°C] Vent [km/h] Ensoleillement4 [h] Precipitations totale5 [mm] Pression [Hpa]
Min1 Max.2 Moy.3 Max. Min Max.
9.1 24.2 0 11.1 0 h 0 min 0 1024.0 1029.0

1 Température minimale relevée entre 18:00 UTC la veille et 18:00 UTC le jour donné.

2 Température maximale relevée entre 06:00 UTC le jour donné et 06:00 UTC le lendemain.

3 Vent moyen de la journée basé sur les relevés horaires.

4 Ensoleillement en heures relevé entre 06:00 UTC la veille et 06:00 UTC le jour donné.

5 Précipitations totales tombées entre 06:00 UTC la jour donné et 06:00 UTC le lendemain.

Graphiques horaires